sensor_id;sensor_type;location;lat;lon;timestamp;temperature;humidity
14555;DHT22;7364;50.870;4.722;2022-07-03T00:00:52;19.70;99.90
14555;DHT22;7364;50.870;4.722;2022-07-03T00:03:19;19.60;99.90
14555;DHT22;7364;50.870;4.722;2022-07-03T00:05:46;19.50;99.90
14555;DHT22;7364;50.870;4.722;2022-07-03T00:08:13;19.50;99.90
14555;DHT22;7364;50.870;4.722;2022-07-03T00:10:40;19.50;99.90
14555;DHT22;7364;50.870;4.722;2022-07-03T00:13:08;19.40;99.90
14555;DHT22;7364;50.870;4.722;2022-07-03T00:15:36;19.40;99.90
14555;DHT22;7364;50.870;4.722;2022-07-03T00:18:05;19.40;99.90
14555;DHT22;7364;50.870;4.722;2022-07-03T00:20:38;19.20;99.90
14555;DHT22;7364;50.870;4.722;2022-07-03T00:23:09;19.10;99.90
14555;DHT22;7364;50.870;4.722;2022-07-03T00:25:40;19.20;99.90
14555;DHT22;7364;50.870;4.722;2022-07-03T00:28:08;19.20;99.90
14555;DHT22;7364;50.870;4.722;2022-07-03T00:30:36;19.10;99.90
14555;DHT22;7364;50.870;4.722;2022-07-03T00:33:05;19.10;99.90
14555;DHT22;7364;50.870;4.722;2022-07-03T00:35:35;19.10;99.90
14555;DHT22;7364;50.870;4.722;2022-07-03T00:38:03;19.10;99.90
14555;DHT22;7364;50.870;4.722;2022-07-03T00:40:30;19.10;99.90
14555;DHT22;7364;50.870;4.722;2022-07-03T00:42:59;19.10;99.90
14555;DHT22;7364;50.870;4.722;2022-07-03T00:45:27;19.20;99.90
14555;DHT22;7364;50.870;4.722;2022-07-03T00:47:56;19.20;99.90
14555;DHT22;7364;50.870;4.722;2022-07-03T00:50:33;19.30;99.90
14555;DHT22;7364;50.870;4.722;2022-07-03T00:53:02;19.30;99.90
14555;DHT22;7364;50.870;4.722;2022-07-03T00:55:29;19.30;99.90
14555;DHT22;7364;50.870;4.722;2022-07-03T00:57:57;19.30;99.90
14555;DHT22;7364;50.870;4.722;2022-07-03T01:00:24;19.30;99.90
14555;DHT22;7364;50.870;4.722;2022-07-03T01:02:56;19.20;99.90
14555;DHT22;7364;50.870;4.722;2022-07-03T01:05:32;19.20;99.90
14555;DHT22;7364;50.870;4.722;2022-07-03T01:08:11;19.30;99.90
14555;DHT22;7364;50.870;4.722;2022-07-03T01:10:49;19.30;99.90
14555;DHT22;7364;50.870;4.722;2022-07-03T01:13:32;19.30;99.90
14555;DHT22;7364;50.870;4.722;2022-07-03T01:16:06;19.30;99.90
14555;DHT22;7364;50.870;4.722;2022-07-03T01:18:44;19.40;99.90
14555;DHT22;7364;50.870;4.722;2022-07-03T01:21:21;19.30;99.90
14555;DHT22;7364;50.870;4.722;2022-07-03T01:24:21;19.40;99.90
14555;DHT22;7364;50.870;4.722;2022-07-03T01:27:00;19.40;99.90
14555;DHT22;7364;50.870;4.722;2022-07-03T01:29:38;19.30;99.90
14555;DHT22;7364;50.870;4.722;2022-07-03T01:32:12;19.30;99.90
14555;DHT22;7364;50.870;4.722;2022-07-03T01:34:43;19.30;99.90
14555;DHT22;7364;50.870;4.722;2022-07-03T01:37:15;19.40;99.90
14555;DHT22;7364;50.870;4.722;2022-07-03T01:39:44;19.40;99.90
14555;DHT22;7364;50.870;4.722;2022-07-03T01:42:15;19.50;99.90
14555;DHT22;7364;50.870;4.722;2022-07-03T01:44:46;19.50;99.90
14555;DHT22;7364;50.870;4.722;2022-07-03T01:47:14;19.30;99.90
14555;DHT22;7364;50.870;4.722;2022-07-03T01:49:42;19.30;99.90
14555;DHT22;7364;50.870;4.722;2022-07-03T01:52:11;19.30;99.90
14555;DHT22;7364;50.870;4.722;2022-07-03T01:54:39;19.30;99.90
14555;DHT22;7364;50.870;4.722;2022-07-03T01:57:07;19.40;99.90
14555;DHT22;7364;50.870;4.722;2022-07-03T01:59:35;19.50;99.90
14555;DHT22;7364;50.870;4.722;2022-07-03T02:02:11;19.50;99.90
14555;DHT22;7364;50.870;4.722;2022-07-03T02:04:48;19.40;99.90
14555;DHT22;7364;50.870;4.722;2022-07-03T02:07:27;19.50;99.90
14555;DHT22;7364;50.870;4.722;2022-07-03T02:10:03;19.50;99.90
14555;DHT22;7364;50.870;4.722;2022-07-03T02:12:40;19.40;99.90
14555;DHT22;7364;50.870;4.722;2022-07-03T02:15:18;19.40;99.90
14555;DHT22;7364;50.870;4.722;2022-07-03T02:17:48;19.30;99.90
14555;DHT22;7364;50.870;4.722;2022-07-03T02:20:18;19.20;99.90
14555;DHT22;7364;50.870;4.722;2022-07-03T02:22:50;19.20;99.90
14555;DHT22;7364;50.870;4.722;2022-07-03T02:25:22;19.30;99.90
14555;DHT22;7364;50.870;4.722;2022-07-03T02:27:56;19.50;99.90
14555;DHT22;7364;50.870;4.722;2022-07-03T02:30:27;19.30;99.90
14555;DHT22;7364;50.870;4.722;2022-07-03T02:32:57;19.20;99.90
14555;DHT22;7364;50.870;4.722;2022-07-03T02:35:27;19.10;99.90
14555;DHT22;7364;50.870;4.722;2022-07-03T02:38:03;19.00;99.90
14555;DHT22;7364;50.870;4.722;2022-07-03T02:40:37;19.00;99.90
14555;DHT22;7364;50.870;4.722;2022-07-03T02:43:18;19.10;99.90
14555;DHT22;7364;50.870;4.722;2022-07-03T02:45:52;19.40;99.90
14555;DHT22;7364;50.870;4.722;2022-07-03T02:48:29;19.40;99.90
14555;DHT22;7364;50.870;4.722;2022-07-03T02:51:04;19.30;99.90
14555;DHT22;7364;50.870;4.722;2022-07-03T02:53:46;19.20;99.90
14555;DHT22;7364;50.870;4.722;2022-07-03T02:56:19;19.30;99.90
14555;DHT22;7364;50.870;4.722;2022-07-03T02:59:06;19.50;99.90
14555;DHT22;7364;50.870;4.722;2022-07-03T03:01:46;19.70;99.90
14555;DHT22;7364;50.870;4.722;2022-07-03T03:04:21;19.70;99.90
14555;DHT22;7364;50.870;4.722;2022-07-03T03:06:55;19.60;99.90
14555;DHT22;7364;50.870;4.722;2022-07-03T03:09:27;19.60;99.90
14555;DHT22;7364;50.870;4.722;2022-07-03T03:12:00;19.60;99.90
14555;DHT22;7364;50.870;4.722;2022-07-03T03:14:38;19.60;99.90
14555;DHT22;7364;50.870;4.722;2022-07-03T03:17:07;19.70;99.90
14555;DHT22;7364;50.870;4.722;2022-07-03T03:19:40;19.60;99.90
14555;DHT22;7364;50.870;4.722;2022-07-03T03:22:28;19.40;99.90
14555;DHT22;7364;50.870;4.722;2022-07-03T03:24:59;19.20;99.90
14555;DHT22;7364;50.870;4.722;2022-07-03T03:27:28;19.20;99.90
14555;DHT22;7364;50.870;4.722;2022-07-03T03:29:55;19.30;99.90
14555;DHT22;7364;50.870;4.722;2022-07-03T03:32:25;19.30;99.90
14555;DHT22;7364;50.870;4.722;2022-07-03T03:34:53;19.40;99.90
14555;DHT22;7364;50.870;4.722;2022-07-03T03:37:20;19.30;99.90
14555;DHT22;7364;50.870;4.722;2022-07-03T03:39:47;19.30;99.90
14555;DHT22;7364;50.870;4.722;2022-07-03T03:42:14;19.10;99.90
14555;DHT22;7364;50.870;4.722;2022-07-03T03:44:43;19.00;99.90
14555;DHT22;7364;50.870;4.722;2022-07-03T03:47:10;18.90;99.90
14555;DHT22;7364;50.870;4.722;2022-07-03T03:49:39;19.00;99.90
14555;DHT22;7364;50.870;4.722;2022-07-03T03:52:06;19.00;99.90
14555;DHT22;7364;50.870;4.722;2022-07-03T03:54:34;18.90;99.90
14555;DHT22;7364;50.870;4.722;2022-07-03T03:57:18;18.80;99.90
14555;DHT22;7364;50.870;4.722;2022-07-03T03:59:46;18.80;99.90
14555;DHT22;7364;50.870;4.722;2022-07-03T04:02:13;18.90;99.90
14555;DHT22;7364;50.870;4.722;2022-07-03T04:04:42;18.70;99.90
14555;DHT22;7364;50.870;4.722;2022-07-03T04:07:09;18.70;99.90
14555;DHT22;7364;50.870;4.722;2022-07-03T04:09:37;18.70;99.90
14555;DHT22;7364;50.870;4.722;2022-07-03T04:12:05;18.80;99.90
14555;DHT22;7364;50.870;4.722;2022-07-03T04:14:32;18.80;99.90
14555;DHT22;7364;50.870;4.722;2022-07-03T04:16:59;18.80;99.90
14555;DHT22;7364;50.870;4.722;2022-07-03T04:19:27;18.80;99.90
14555;DHT22;7364;50.870;4.722;2022-07-03T04:21:55;18.80;99.90
14555;DHT22;7364;50.870;4.722;2022-07-03T04:24:23;18.80;99.90
14555;DHT22;7364;50.870;4.722;2022-07-03T04:26:50;18.70;99.90
14555;DHT22;7364;50.870;4.722;2022-07-03T04:29:18;18.80;99.90
14555;DHT22;7364;50.870;4.722;2022-07-03T04:31:45;18.80;99.90
14555;DHT22;7364;50.870;4.722;2022-07-03T04:34:15;18.70;99.90
14555;DHT22;7364;50.870;4.722;2022-07-03T04:36:45;18.70;99.90
14555;DHT22;7364;50.870;4.722;2022-07-03T04:39:17;18.70;99.90
14555;DHT22;7364;50.870;4.722;2022-07-03T04:41:44;18.60;99.90
14555;DHT22;7364;50.870;4.722;2022-07-03T04:44:11;18.50;99.90
14555;DHT22;7364;50.870;4.722;2022-07-03T04:46:38;18.60;99.90
14555;DHT22;7364;50.870;4.722;2022-07-03T04:49:05;18.60;99.90
14555;DHT22;7364;50.870;4.722;2022-07-03T04:51:33;18.60;99.90
14555;DHT22;7364;50.870;4.722;2022-07-03T04:54:00;18.70;99.90
14555;DHT22;7364;50.870;4.722;2022-07-03T04:56:28;18.70;99.90
14555;DHT22;7364;50.870;4.722;2022-07-03T04:58:56;18.70;99.90
14555;DHT22;7364;50.870;4.722;2022-07-03T05:01:25;18.40;99.90
14555;DHT22;7364;50.870;4.722;2022-07-03T05:03:53;18.20;99.90
14555;DHT22;7364;50.870;4.722;2022-07-03T05:06:20;18.00;99.90
14555;DHT22;7364;50.870;4.722;2022-07-03T05:08:47;17.90;99.90
14555;DHT22;7364;50.870;4.722;2022-07-03T05:11:14;17.90;99.90
14555;DHT22;7364;50.870;4.722;2022-07-03T05:13:43;17.90;99.90
14555;DHT22;7364;50.870;4.722;2022-07-03T05:16:10;18.00;99.90
14555;DHT22;7364;50.870;4.722;2022-07-03T05:18:37;18.30;99.90
14555;DHT22;7364;50.870;4.722;2022-07-03T05:21:05;18.60;99.90
14555;DHT22;7364;50.870;4.722;2022-07-03T05:23:32;18.70;99.90
14555;DHT22;7364;50.870;4.722;2022-07-03T05:25:59;18.50;99.90
14555;DHT22;7364;50.870;4.722;2022-07-03T05:28:26;18.50;99.90
14555;DHT22;7364;50.870;4.722;2022-07-03T05:30:55;18.50;99.90
14555;DHT22;7364;50.870;4.722;2022-07-03T05:33:22;18.50;99.90
14555;DHT22;7364;50.870;4.722;2022-07-03T05:35:49;18.40;99.90
14555;DHT22;7364;50.870;4.722;2022-07-03T05:38:16;18.40;99.90
14555;DHT22;7364;50.870;4.722;2022-07-03T05:41:04;18.40;99.90
14555;DHT22;7364;50.870;4.722;2022-07-03T05:43:31;18.50;99.90
14555;DHT22;7364;50.870;4.722;2022-07-03T05:46:01;18.70;99.90
14555;DHT22;7364;50.870;4.722;2022-07-03T05:48:29;18.70;99.90
14555;DHT22;7364;50.870;4.722;2022-07-03T05:50:56;18.80;99.90
14555;DHT22;7364;50.870;4.722;2022-07-03T05:53:24;18.90;99.90
14555;DHT22;7364;50.870;4.722;2022-07-03T05:55:51;18.90;99.90
14555;DHT22;7364;50.870;4.722;2022-07-03T05:58:18;18.90;99.90
14555;DHT22;7364;50.870;4.722;2022-07-03T06:00:45;18.90;99.90
14555;DHT22;7364;50.870;4.722;2022-07-03T06:03:14;18.90;99.90
14555;DHT22;7364;50.870;4.722;2022-07-03T06:05:41;18.80;99.90
14555;DHT22;7364;50.870;4.722;2022-07-03T06:08:08;18.60;99.90
14555;DHT22;7364;50.870;4.722;2022-07-03T06:10:35;18.60;99.90
14555;DHT22;7364;50.870;4.722;2022-07-03T06:13:02;18.70;99.90
14555;DHT22;7364;50.870;4.722;2022-07-03T06:15:30;18.90;99.90
14555;DHT22;7364;50.870;4.722;2022-07-03T06:17:57;19.00;99.90
14555;DHT22;7364;50.870;4.722;2022-07-03T06:20:26;19.00;99.90
14555;DHT22;7364;50.870;4.722;2022-07-03T06:22:53;18.80;99.90
14555;DHT22;7364;50.870;4.722;2022-07-03T06:25:20;18.60;99.90
14555;DHT22;7364;50.870;4.722;2022-07-03T06:27:48;18.20;99.90
14555;DHT22;7364;50.870;4.722;2022-07-03T06:30:15;18.00;99.90
14555;DHT22;7364;50.870;4.722;2022-07-03T06:32:42;17.90;99.90
14555;DHT22;7364;50.870;4.722;2022-07-03T06:35:09;17.80;99.90
14555;DHT22;7364;50.870;4.722;2022-07-03T06:37:37;17.80;99.90
14555;DHT22;7364;50.870;4.722;2022-07-03T06:40:06;17.80;99.90
14555;DHT22;7364;50.870;4.722;2022-07-03T06:42:33;17.90;99.90
14555;DHT22;7364;50.870;4.722;2022-07-03T06:45:00;18.00;99.90
14555;DHT22;7364;50.870;4.722;2022-07-03T06:47:28;18.30;99.90
14555;DHT22;7364;50.870;4.722;2022-07-03T06:49:57;18.50;99.90
14555;DHT22;7364;50.870;4.722;2022-07-03T06:52:25;18.60;99.90
14555;DHT22;7364;50.870;4.722;2022-07-03T06:54:54;18.80;99.90
14555;DHT22;7364;50.870;4.722;2022-07-03T06:57:21;19.00;99.90
14555;DHT22;7364;50.870;4.722;2022-07-03T06:59:48;18.90;99.90
14555;DHT22;7364;50.870;4.722;2022-07-03T07:02:15;18.80;99.90
14555;DHT22;7364;50.870;4.722;2022-07-03T07:04:43;18.80;99.90
14555;DHT22;7364;50.870;4.722;2022-07-03T07:07:10;19.00;99.90
14555;DHT22;7364;50.870;4.722;2022-07-03T07:09:37;19.30;99.90
14555;DHT22;7364;50.870;4.722;2022-07-03T07:12:06;19.50;99.90
14555;DHT22;7364;50.870;4.722;2022-07-03T07:14:34;19.60;99.90
14555;DHT22;7364;50.870;4.722;2022-07-03T07:17:01;19.60;99.90
14555;DHT22;7364;50.870;4.722;2022-07-03T07:19:28;19.60;99.90
14555;DHT22;7364;50.870;4.722;2022-07-03T07:21:55;20.10;99.90
14555;DHT22;7364;50.870;4.722;2022-07-03T07:24:22;20.60;99.90
14555;DHT22;7364;50.870;4.722;2022-07-03T07:26:49;20.40;99.90
14555;DHT22;7364;50.870;4.722;2022-07-03T07:29:18;20.40;99.90
14555;DHT22;7364;50.870;4.722;2022-07-03T07:31:45;20.20;99.90
14555;DHT22;7364;50.870;4.722;2022-07-03T07:34:12;20.60;99.90
14555;DHT22;7364;50.870;4.722;2022-07-03T07:36:39;20.40;99.90
14555;DHT22;7364;50.870;4.722;2022-07-03T07:39:06;20.40;99.90
14555;DHT22;7364;50.870;4.722;2022-07-03T07:41:35;20.30;99.90
14555;DHT22;7364;50.870;4.722;2022-07-03T07:44:03;20.00;99.90
14555;DHT22;7364;50.870;4.722;2022-07-03T07:46:31;19.90;99.90
14555;DHT22;7364;50.870;4.722;2022-07-03T07:48:59;19.70;99.90
14555;DHT22;7364;50.870;4.722;2022-07-03T07:51:26;19.70;99.90
14555;DHT22;7364;50.870;4.722;2022-07-03T07:53:54;19.90;99.90
14555;DHT22;7364;50.870;4.722;2022-07-03T07:56:23;20.10;99.90
14555;DHT22;7364;50.870;4.722;2022-07-03T07:58:50;19.70;99.90
14555;DHT22;7364;50.870;4.722;2022-07-03T08:01:18;19.80;99.90
14555;DHT22;7364;50.870;4.722;2022-07-03T08:04:04;19.90;99.90
14555;DHT22;7364;50.870;4.722;2022-07-03T08:06:49;20.10;99.90
14555;DHT22;7364;50.870;4.722;2022-07-03T08:09:16;19.70;99.90
14555;DHT22;7364;50.870;4.722;2022-07-03T08:11:44;19.70;99.90
14555;DHT22;7364;50.870;4.722;2022-07-03T08:14:11;19.50;99.90
14555;DHT22;7364;50.870;4.722;2022-07-03T08:16:38;19.60;99.90
14555;DHT22;7364;50.870;4.722;2022-07-03T08:19:08;19.70;99.90
14555;DHT22;7364;50.870;4.722;2022-07-03T08:21:35;19.80;99.90
14555;DHT22;7364;50.870;4.722;2022-07-03T08:24:02;19.60;99.90
14555;DHT22;7364;50.870;4.722;2022-07-03T08:26:30;19.70;99.90
14555;DHT22;7364;50.870;4.722;2022-07-03T08:28:57;19.60;99.90
14555;DHT22;7364;50.870;4.722;2022-07-03T08:31:24;19.70;99.90
14555;DHT22;7364;50.870;4.722;2022-07-03T08:33:52;19.70;99.90
14555;DHT22;7364;50.870;4.722;2022-07-03T08:36:20;20.00;99.90
14555;DHT22;7364;50.870;4.722;2022-07-03T08:38:47;20.50;99.90
14555;DHT22;7364;50.870;4.722;2022-07-03T08:41:15;20.80;99.90
14555;DHT22;7364;50.870;4.722;2022-07-03T08:43:43;20.50;99.90
14555;DHT22;7364;50.870;4.722;2022-07-03T08:46:11;20.60;99.90
14555;DHT22;7364;50.870;4.722;2022-07-03T08:48:40;20.30;99.90
14555;DHT22;7364;50.870;4.722;2022-07-03T08:51:08;20.20;99.90
14555;DHT22;7364;50.870;4.722;2022-07-03T08:53:37;20.30;99.90
14555;DHT22;7364;50.870;4.722;2022-07-03T08:56:06;20.10;99.90
14555;DHT22;7364;50.870;4.722;2022-07-03T08:58:34;20.30;99.90
14555;DHT22;7364;50.870;4.722;2022-07-03T09:01:02;20.40;99.90
14555;DHT22;7364;50.870;4.722;2022-07-03T09:03:31;20.60;99.90
14555;DHT22;7364;50.870;4.722;2022-07-03T09:05:58;20.70;99.90
14555;DHT22;7364;50.870;4.722;2022-07-03T09:08:26;20.90;99.90
14555;DHT22;7364;50.870;4.722;2022-07-03T09:10:57;21.10;99.90
14555;DHT22;7364;50.870;4.722;2022-07-03T09:13:24;20.90;99.90
14555;DHT22;7364;50.870;4.722;2022-07-03T09:15:51;21.10;99.90
14555;DHT22;7364;50.870;4.722;2022-07-03T09:18:36;21.20;99.90
14555;DHT22;7364;50.870;4.722;2022-07-03T09:21:04;20.80;99.90
14555;DHT22;7364;50.870;4.722;2022-07-03T09:23:36;20.90;99.90
14555;DHT22;7364;50.870;4.722;2022-07-03T09:26:05;21.50;99.90
14555;DHT22;7364;50.870;4.722;2022-07-03T09:28:44;21.40;99.90
14555;DHT22;7364;50.870;4.722;2022-07-03T09:31:14;21.40;99.90
14555;DHT22;7364;50.870;4.722;2022-07-03T09:33:50;21.60;99.90
14555;DHT22;7364;50.870;4.722;2022-07-03T09:36:17;21.50;99.90
14555;DHT22;7364;50.870;4.722;2022-07-03T09:38:45;21.70;99.90
14555;DHT22;7364;50.870;4.722;2022-07-03T09:41:13;22.20;99.90
14555;DHT22;7364;50.870;4.722;2022-07-03T09:43:44;22.20;99.90
14555;DHT22;7364;50.870;4.722;2022-07-03T09:46:11;21.90;99.90
14555;DHT22;7364;50.870;4.722;2022-07-03T09:48:40;21.90;99.90
14555;DHT22;7364;50.870;4.722;2022-07-03T09:51:18;22.00;99.90
14555;DHT22;7364;50.870;4.722;2022-07-03T09:53:54;22.40;99.90
14555;DHT22;7364;50.870;4.722;2022-07-03T09:56:25;23.10;99.60
14555;DHT22;7364;50.870;4.722;2022-07-03T09:58:59;23.10;98.80
14555;DHT22;7364;50.870;4.722;2022-07-03T10:01:27;22.20;99.20
14555;DHT22;7364;50.870;4.722;2022-07-03T10:03:54;22.10;99.90
14555;DHT22;7364;50.870;4.722;2022-07-03T10:06:21;21.70;99.90
14555;DHT22;7364;50.870;4.722;2022-07-03T10:08:49;21.60;99.90
14555;DHT22;7364;50.870;4.722;2022-07-03T10:11:17;21.50;99.90
14555;DHT22;7364;50.870;4.722;2022-07-03T10:13:46;21.40;99.40
14555;DHT22;7364;50.870;4.722;2022-07-03T10:16:13;21.50;99.90
14555;DHT22;7364;50.870;4.722;2022-07-03T10:18:44;21.80;99.40
14555;DHT22;7364;50.870;4.722;2022-07-03T10:21:15;21.90;99.10
14555;DHT22;7364;50.870;4.722;2022-07-03T10:23:43;22.10;97.90
14555;DHT22;7364;50.870;4.722;2022-07-03T10:26:11;22.00;97.50
14555;DHT22;7364;50.870;4.722;2022-07-03T10:28:39;22.10;97.40
14555;DHT22;7364;50.870;4.722;2022-07-03T10:31:08;22.50;97.70
14555;DHT22;7364;50.870;4.722;2022-07-03T10:33:36;22.30;96.90
14555;DHT22;7364;50.870;4.722;2022-07-03T10:36:05;22.20;96.60
14555;DHT22;7364;50.870;4.722;2022-07-03T10:38:37;22.00;96.60
14555;DHT22;7364;50.870;4.722;2022-07-03T10:41:10;21.70;96.60
14555;DHT22;7364;50.870;4.722;2022-07-03T10:43:56;21.70;98.00
14555;DHT22;7364;50.870;4.722;2022-07-03T10:46:42;22.50;97.00
14555;DHT22;7364;50.870;4.722;2022-07-03T10:49:10;22.90;96.20
14555;DHT22;7364;50.870;4.722;2022-07-03T10:51:56;22.90;95.50
14555;DHT22;7364;50.870;4.722;2022-07-03T10:54:25;22.70;95.60
14555;DHT22;7364;50.870;4.722;2022-07-03T10:57:12;22.70;95.10
14555;DHT22;7364;50.870;4.722;2022-07-03T11:02:48;22.20;95.40
14555;DHT22;7364;50.870;4.722;2022-07-03T11:05:21;22.70;95.30
14555;DHT22;7364;50.870;4.722;2022-07-03T11:08:06;22.90;94.80
14555;DHT22;7364;50.870;4.722;2022-07-03T11:10:35;23.00;94.30
14555;DHT22;7364;50.870;4.722;2022-07-03T11:13:13;23.10;94.40
14555;DHT22;7364;50.870;4.722;2022-07-03T11:15:43;23.20;94.90
14555;DHT22;7364;50.870;4.722;2022-07-03T11:18:32;23.70;93.60
14555;DHT22;7364;50.870;4.722;2022-07-03T11:27:23;22.40;93.90
14555;DHT22;7364;50.870;4.722;2022-07-03T11:29:58;22.80;95.40
14555;DHT22;7364;50.870;4.722;2022-07-03T11:32:44;23.40;93.30
14555;DHT22;7364;50.870;4.722;2022-07-03T11:35:45;24.00;92.10
14555;DHT22;7364;50.870;4.722;2022-07-03T11:38:19;24.30;92.20
14555;DHT22;7364;50.870;4.722;2022-07-03T11:40:49;24.60;91.40
14555;DHT22;7364;50.870;4.722;2022-07-03T11:43:16;24.70;91.30
14555;DHT22;7364;50.870;4.722;2022-07-03T11:45:44;24.10;88.90
14555;DHT22;7364;50.870;4.722;2022-07-03T11:48:13;23.80;89.40
14555;DHT22;7364;50.870;4.722;2022-07-03T11:50:42;24.10;89.60
14555;DHT22;7364;50.870;4.722;2022-07-03T11:53:21;25.10;89.20
14555;DHT22;7364;50.870;4.722;2022-07-03T11:55:50;25.60;90.00
14555;DHT22;7364;50.870;4.722;2022-07-03T11:58:18;25.60;88.20
14555;DHT22;7364;50.870;4.722;2022-07-03T12:00:46;25.20;85.20
14555;DHT22;7364;50.870;4.722;2022-07-03T12:03:22;25.80;86.00
14555;DHT22;7364;50.870;4.722;2022-07-03T12:05:57;26.00;82.80
14555;DHT22;7364;50.870;4.722;2022-07-03T12:08:28;25.30;83.00
14555;DHT22;7364;50.870;4.722;2022-07-03T12:11:03;24.00;86.20
14555;DHT22;7364;50.870;4.722;2022-07-03T12:13:32;24.20;88.70
14555;DHT22;7364;50.870;4.722;2022-07-03T12:16:05;25.00;84.30
14555;DHT22;7364;50.870;4.722;2022-07-03T12:18:50;25.90;82.30
14555;DHT22;7364;50.870;4.722;2022-07-03T12:21:18;25.60;79.90
14555;DHT22;7364;50.870;4.722;2022-07-03T12:23:48;25.90;82.30
14555;DHT22;7364;50.870;4.722;2022-07-03T12:26:28;27.50;78.60
14555;DHT22;7364;50.870;4.722;2022-07-03T12:28:59;28.30;74.50
14555;DHT22;7364;50.870;4.722;2022-07-03T12:31:28;27.30;74.20
14555;DHT22;7364;50.870;4.722;2022-07-03T12:33:56;26.80;74.80
14555;DHT22;7364;50.870;4.722;2022-07-03T12:36:23;27.00;75.10
14555;DHT22;7364;50.870;4.722;2022-07-03T12:38:54;26.80;75.70
14555;DHT22;7364;50.870;4.722;2022-07-03T12:41:22;25.90;76.20
14555;DHT22;7364;50.870;4.722;2022-07-03T12:43:51;26.00;78.50
14555;DHT22;7364;50.870;4.722;2022-07-03T12:46:19;27.90;76.30
14555;DHT22;7364;50.870;4.722;2022-07-03T12:48:48;30.70;69.00
14555;DHT22;7364;50.870;4.722;2022-07-03T12:51:16;33.20;61.90
14555;DHT22;7364;50.870;4.722;2022-07-03T12:53:43;32.90;58.70
14555;DHT22;7364;50.870;4.722;2022-07-03T12:56:22;30.00;59.10
14555;DHT22;7364;50.870;4.722;2022-07-03T12:58:49;27.60;65.50
14555;DHT22;7364;50.870;4.722;2022-07-03T13:01:33;26.90;66.40
14555;DHT22;7364;50.870;4.722;2022-07-03T13:04:03;27.00;68.40
14555;DHT22;7364;50.870;4.722;2022-07-03T13:06:30;25.50;69.70
14555;DHT22;7364;50.870;4.722;2022-07-03T13:08:59;25.50;73.70
14555;DHT22;7364;50.870;4.722;2022-07-03T13:11:29;26.70;71.90
14555;DHT22;7364;50.870;4.722;2022-07-03T13:14:05;27.00;68.40
14555;DHT22;7364;50.870;4.722;2022-07-03T13:16:38;27.70;65.20
14555;DHT22;7364;50.870;4.722;2022-07-03T13:19:07;28.50;65.70
14555;DHT22;7364;50.870;4.722;2022-07-03T13:21:35;28.50;62.80
14555;DHT22;7364;50.870;4.722;2022-07-03T13:24:03;27.20;68.10
14555;DHT22;7364;50.870;4.722;2022-07-03T13:26:32;26.60;68.50
14555;DHT22;7364;50.870;4.722;2022-07-03T13:28:59;26.30;69.60
14555;DHT22;7364;50.870;4.722;2022-07-03T13:31:27;27.00;70.70
14555;DHT22;7364;50.870;4.722;2022-07-03T13:33:54;28.60;69.40
14555;DHT22;7364;50.870;4.722;2022-07-03T13:36:22;31.00;62.70
14555;DHT22;7364;50.870;4.722;2022-07-03T13:38:49;32.20;57.40
14555;DHT22;7364;50.870;4.722;2022-07-03T13:41:16;31.90;56.60
14555;DHT22;7364;50.870;4.722;2022-07-03T13:43:46;29.40;59.60
14555;DHT22;7364;50.870;4.722;2022-07-03T13:46:14;27.40;62.90
14555;DHT22;7364;50.870;4.722;2022-07-03T13:48:41;26.80;64.80
14555;DHT22;7364;50.870;4.722;2022-07-03T13:51:08;25.90;67.20
14555;DHT22;7364;50.870;4.722;2022-07-03T13:53:37;25.80;67.10
14555;DHT22;7364;50.870;4.722;2022-07-03T13:56:05;25.70;68.50
14555;DHT22;7364;50.870;4.722;2022-07-03T13:58:32;25.70;70.80
14555;DHT22;7364;50.870;4.722;2022-07-03T14:01:01;27.10;66.90
14555;DHT22;7364;50.870;4.722;2022-07-03T14:03:29;27.80;68.30
14555;DHT22;7364;50.870;4.722;2022-07-03T14:05:57;30.40;63.30
14555;DHT22;7364;50.870;4.722;2022-07-03T14:08:25;32.60;59.00
14555;DHT22;7364;50.870;4.722;2022-07-03T14:10:53;32.00;56.50
14555;DHT22;7364;50.870;4.722;2022-07-03T14:13:20;32.90;56.80
14555;DHT22;7364;50.870;4.722;2022-07-03T14:15:47;36.10;53.00
14555;DHT22;7364;50.870;4.722;2022-07-03T14:18:15;33.00;51.50
14555;DHT22;7364;50.870;4.722;2022-07-03T14:20:43;33.10;54.30
14555;DHT22;7364;50.870;4.722;2022-07-03T14:23:10;32.20;53.50
14555;DHT22;7364;50.870;4.722;2022-07-03T14:25:37;30.00;56.40
14555;DHT22;7364;50.870;4.722;2022-07-03T14:28:04;28.70;58.40
14555;DHT22;7364;50.870;4.722;2022-07-03T14:30:49;28.80;59.70
14555;DHT22;7364;50.870;4.722;2022-07-03T14:33:41;28.70;59.20
14555;DHT22;7364;50.870;4.722;2022-07-03T14:36:13;28.10;60.70
14555;DHT22;7364;50.870;4.722;2022-07-03T14:38:41;27.70;62.10
14555;DHT22;7364;50.870;4.722;2022-07-03T14:41:08;26.90;63.90
14555;DHT22;7364;50.870;4.722;2022-07-03T14:43:35;25.90;65.10
14555;DHT22;7364;50.870;4.722;2022-07-03T14:46:02;25.30;67.60
14555;DHT22;7364;50.870;4.722;2022-07-03T14:48:29;25.20;68.40
14555;DHT22;7364;50.870;4.722;2022-07-03T14:50:58;26.40;67.50
14555;DHT22;7364;50.870;4.722;2022-07-03T14:53:25;28.60;62.20
14555;DHT22;7364;50.870;4.722;2022-07-03T14:55:52;28.20;60.90
14555;DHT22;7364;50.870;4.722;2022-07-03T14:58:26;26.90;63.80
14555;DHT22;7364;50.870;4.722;2022-07-03T15:00:54;27.60;63.70
14555;DHT22;7364;50.870;4.722;2022-07-03T15:03:27;29.30;60.80
14555;DHT22;7364;50.870;4.722;2022-07-03T15:05:57;29.30;59.80
14555;DHT22;7364;50.870;4.722;2022-07-03T15:08:48;27.40;60.60
14555;DHT22;7364;50.870;4.722;2022-07-03T15:11:20;26.20;63.40
14555;DHT22;7364;50.870;4.722;2022-07-03T15:14:06;26.20;63.60
14555;DHT22;7364;50.870;4.722;2022-07-03T15:16:39;26.00;66.30
14555;DHT22;7364;50.870;4.722;2022-07-03T15:19:07;26.30;65.00
14555;DHT22;7364;50.870;4.722;2022-07-03T15:21:40;26.00;64.80
14555;DHT22;7364;50.870;4.722;2022-07-03T15:24:09;25.70;65.60
14555;DHT22;7364;50.870;4.722;2022-07-03T15:26:40;25.50;65.70
14555;DHT22;7364;50.870;4.722;2022-07-03T15:29:10;25.70;65.70
14555;DHT22;7364;50.870;4.722;2022-07-03T15:31:41;25.70;66.80
14555;DHT22;7364;50.870;4.722;2022-07-03T15:34:08;25.50;67.50
14555;DHT22;7364;50.870;4.722;2022-07-03T15:36:42;25.30;68.40
14555;DHT22;7364;50.870;4.722;2022-07-03T15:39:16;25.50;68.50
14555;DHT22;7364;50.870;4.722;2022-07-03T15:41:52;25.10;68.80
14555;DHT22;7364;50.870;4.722;2022-07-03T15:44:31;25.10;70.00
14555;DHT22;7364;50.870;4.722;2022-07-03T15:47:09;25.00;69.60
14555;DHT22;7364;50.870;4.722;2022-07-03T15:49:40;25.60;70.00
14555;DHT22;7364;50.870;4.722;2022-07-03T15:52:17;26.40;67.70
14555;DHT22;7364;50.870;4.722;2022-07-03T15:54:52;26.50;65.40
14555;DHT22;7364;50.870;4.722;2022-07-03T15:57:32;26.30;66.70
14555;DHT22;7364;50.870;4.722;2022-07-03T16:00:04;26.40;65.50
14555;DHT22;7364;50.870;4.722;2022-07-03T16:02:56;27.40;64.30
14555;DHT22;7364;50.870;4.722;2022-07-03T16:05:25;28.40;62.00
14555;DHT22;7364;50.870;4.722;2022-07-03T16:07:54;28.20;60.30
14555;DHT22;7364;50.870;4.722;2022-07-03T16:10:24;26.90;61.60
14555;DHT22;7364;50.870;4.722;2022-07-03T16:12:52;25.70;64.70
14555;DHT22;7364;50.870;4.722;2022-07-03T16:15:20;25.40;66.20